Dexter, Kentucky
Current Conditions -  °F | °C
As of 1:15 AM on Wednesday 22 Oct 2014 (Local Time) from KCEY Reporting Station
Clear Clear  
Wind Chill: 46°   Ceiling: Unl
Heat Index: 48°   Visibility: 4mi
Dew Point: 41°   Wind: 6mph
Humidity: 76%   Direction: 50°NE
Pressure: 30.16"   Gusts: NA
Location:  36.74°N, 88.3°W
Report Text: KCEY 220615Z AUTO 05005KT 4SM CLR 09/05 A3016 RMK AO1
Loading
Personal Weather Stations






























Interactive Weather Map
Tropical Storm Tracking
New forecast layout! Learn more

10-Day Weather Forecast

Advertisements
Track Severe Weather on mobile